Time;durP1;ratioP1;P1;durP2;ratioP2;P2;SDS_P1;SDS_P2;PMS_P1;PMS_P2;Temp;Humidity;BMP_temperature;BMP_pressure;BME280_temperature;BME280_humidity;BME280_pressure;Samples;Min_cycle;Max_cycle;Signal;HPM_P1;HPM_P2
2023/02/04 00:01:21;;;;;;;26.23;5.03;;;;;;;6.08;100.00;101563.97;5079929;28;20506;-66
2023/02/04 00:03:48;;;;;;;20.10;5.33;;;;;;;6.00;100.00;101559.06;5080414;28;20466;-67
2023/02/04 00:06:15;;;;;;;25.17;4.47;;;;;;;5.98;100.00;101559.13;5080328;28;20580;-67
2023/02/04 00:08:41;;;;;;;26.03;6.07;;;;;;;6.00;100.00;101559.91;5080219;28;20507;-66
2023/02/04 00:11:08;;;;;;;29.83;5.87;;;;;;;6.12;100.00;101553.09;5080459;28;20538;-66
2023/02/04 00:13:34;;;;;;;21.97;4.57;;;;;;;6.07;100.00;101560.44;5083884;28;20476;-66
2023/02/04 00:16:02;;;;;;;18.43;4.97;;;;;;;6.12;100.00;101553.09;5084362;28;20918;-65
2023/02/04 00:18:29;;;;;;;24.17;5.23;;;;;;;6.12;100.00;101552.25;5084907;28;20442;-66
2023/02/04 00:20:56;;;;;;;18.93;4.43;;;;;;;6.12;100.00;101560.22;5084352;28;20549;-67
2023/02/04 00:23:22;;;;;;;31.50;6.27;;;;;;;6.12;100.00;101569.03;5084158;28;20502;-66
2023/02/04 00:25:49;;;;;;;26.87;4.93;;;;;;;6.16;100.00;101575.91;5083634;28;20492;-66
2023/02/04 00:28:16;;;;;;;20.87;4.80;;;;;;;6.09;100.00;101581.63;5084322;28;20501;-66
2023/02/04 00:30:42;;;;;;;19.13;4.90;;;;;;;6.15;100.00;101578.66;5084391;28;20483;-66
2023/02/04 00:33:10;;;;;;;24.47;4.80;;;;;;;6.20;100.00;101572.16;5085183;28;20479;-66
2023/02/04 00:35:37;;;;;;;23.63;4.90;;;;;;;6.13;100.00;101577.88;5083311;28;20493;-67
2023/02/04 00:38:03;;;;;;;28.27;5.30;;;;;;;6.21;100.00;101579.19;5085042;28;20495;-67
2023/02/04 00:40:30;;;;;;;26.20;6.23;;;;;;;6.20;100.00;101589.91;5083470;28;20496;-67
2023/02/04 00:42:57;;;;;;;29.33;5.67;;;;;;;6.13;100.00;101592.00;5090148;28;20550;-67
2023/02/04 00:45:23;;;;;;;26.87;4.90;;;;;;;6.08;100.00;101590.53;5104005;28;20483;-67
2023/02/04 00:47:50;;;;;;;28.13;5.40;;;;;;;6.01;100.00;101590.84;5087539;28;20498;-68
2023/02/04 00:50:18;;;;;;;28.53;5.37;;;;;;;6.01;100.00;101593.50;5083830;28;20472;-67
2023/02/04 00:52:45;;;;;;;25.53;5.30;;;;;;;6.12;100.00;101600.03;5083980;28;20425;-67
2023/02/04 00:55:14;;;;;;;21.40;5.03;;;;;;;6.11;100.00;101611.59;5099876;28;20483;-67
2023/02/04 00:57:41;;;;;;;25.80;5.23;;;;;;;6.05;100.00;101612.78;5103554;28;20768;-66
2023/02/04 01:00:09;;;;;;;38.47;5.70;;;;;;;6.06;100.00;101624.25;5104246;28;20443;-66
2023/02/04 01:02:35;;;;;;;37.13;6.73;;;;;;;6.03;100.00;101631.44;5099152;28;20445;-66
2023/02/04 01:05:02;;;;;;;35.37;5.90;;;;;;;6.01;100.00;101638.63;5083445;28;20489;-66
2023/02/04 01:07:30;;;;;;;22.30;5.03;;;;;;;6.05;100.00;101649.09;5083704;28;20530;-66
2023/02/04 01:09:56;;;;;;;30.40;5.00;;;;;;;5.97;100.00;101644.16;5097341;28;20487;-66
2023/02/04 01:12:26;;;;;;;24.57;4.90;;;;;;;6.00;100.00;101655.47;5101354;28;20485;-68
2023/02/04 01:14:52;;;;;;;18.20;4.67;;;;;;;6.06;100.00;101648.13;5083462;28;20499;-65
2023/02/04 01:17:20;;;;;;;22.47;6.27;;;;;;;5.82;100.00;101648.41;5082611;28;20480;-66
2023/02/04 01:19:46;;;;;;;30.67;5.53;;;;;;;5.88;100.00;101648.09;5084120;28;20452;-66
2023/02/04 01:22:13;;;;;;;44.37;7.13;;;;;;;5.96;100.00;101658.38;5083267;28;20497;-65
2023/02/04 01:24:41;;;;;;;27.80;5.60;;;;;;;5.92;100.00;101662.94;5081128;28;20460;-65
2023/02/04 01:27:08;;;;;;;24.57;5.77;;;;;;;6.02;100.00;101664.25;5083030;28;20541;-65
2023/02/04 01:29:34;;;;;;;19.80;4.73;;;;;;;6.04;100.00;101669.44;5082899;28;20441;-65
2023/02/04 01:32:01;;;;;;;12.47;4.70;;;;;;;6.01;100.00;101678.44;5082973;28;20564;-66
2023/02/04 01:34:30;;;;;;;36.50;7.10;;;;;;;5.98;100.00;101677.72;5096546;28;20452;-65
2023/02/04 01:36:57;;;;;;;29.63;5.77;;;;;;;6.15;100.00;101683.06;5093296;28;20472;-66
2023/02/04 01:39:23;;;;;;;20.13;6.17;;;;;;;6.13;100.00;101692.06;5082029;28;20465;-65
2023/02/04 01:41:51;;;;;;;21.47;4.93;;;;;;;6.15;100.00;101695.50;5092888;28;20505;-66
2023/02/04 01:44:18;;;;;;;19.83;4.50;;;;;;;6.08;100.00;101699.38;5099007;28;20464;-65
2023/02/04 01:46:44;;;;;;;19.87;4.73;;;;;;;6.13;100.00;101700.88;5082232;28;20485;-65
2023/02/04 01:49:11;;;;;;;19.27;3.97;;;;;;;6.02;100.00;101700.53;5084041;28;20505;-65
2023/02/04 01:51:38;;;;;;;19.50;4.90;;;;;;;5.89;100.00;101702.06;5086224;28;20500;-65
2023/02/04 01:54:05;;;;;;;25.37;5.90;;;;;;;5.85;100.00;101698.69;5091086;28;20460;-66
2023/02/04 01:56:31;;;;;;;29.73;4.60;;;;;;;5.76;100.00;101699.97;5092557;28;20502;-66
2023/02/04 01:59:00;;;;;;;24.97;5.03;;;;;;;5.80;100.00;101704.22;5082807;28;20441;-66
2023/02/04 02:01:35;;;;;;;33.43;7.17;;;;;;;5.68;100.00;101707.47;5082198;28;20534;-66
2023/02/04 02:04:02;;;;;;;22.93;4.80;;;;;;;5.69;100.00;101708.31;5083047;28;20444;-67
2023/02/04 02:06:29;;;;;;;24.97;4.97;;;;;;;5.82;100.00;101714.75;5081863;28;20519;-68
2023/02/04 02:08:57;;;;;;;26.17;5.07;;;;;;;5.81;100.00;101711.22;5082422;28;20904;-67
2023/02/04 02:11:23;;;;;;;25.20;5.03;;;;;;;5.79;100.00;101718.41;5082173;28;20519;-67
2023/02/04 02:13:50;;;;;;;18.37;4.40;;;;;;;5.85;100.00;101723.44;5082072;28;20479;-67
2023/02/04 02:16:18;;;;;;;25.17;3.40;;;;;;;5.93;100.00;101722.19;5082942;28;20537;-67
2023/02/04 02:18:45;;;;;;;19.80;4.37;;;;;;;5.98;100.00;101734.34;5090190;28;20538;-67
2023/02/04 02:21:14;;;;;;;24.60;5.73;;;;;;;5.93;100.00;101730.16;5083802;28;20500;-67
2023/02/04 02:23:50;;;;;;;23.23;5.03;;;;;;;5.94;100.00;101737.19;5095016;28;21143;-67
2023/02/04 02:26:17;;;;;;;27.33;6.00;;;;;;;6.00;100.00;101743.06;5087932;28;20497;-67
2023/02/04 02:28:44;;;;;;;27.77;4.20;;;;;;;6.10;100.00;101743.50;5084758;28;20489;-69
2023/02/04 02:31:10;;;;;;;15.60;5.63;;;;;;;6.11;100.00;101754.97;5087428;28;20852;-69
2023/02/04 02:33:37;;;;;;;25.03;4.70;;;;;;;6.04;100.00;101754.41;5086750;28;20476;-68
2023/02/04 02:36:04;;;;;;;16.63;3.40;;;;;;;6.17;100.00;101758.19;5080653;28;20827;-69
2023/02/04 02:38:31;;;;;;;20.00;3.70;;;;;;;6.10;100.00;101771.88;5086511;28;20489;-68
2023/02/04 02:40:59;;;;;;;25.00;3.87;;;;;;;6.19;100.00;101779.38;5083462;28;20510;-68
2023/02/04 02:43:27;;;;;;;16.40;3.70;;;;;;;6.16;100.00;101779.50;5081819;28;20513;-68
2023/02/04 02:45:55;;;;;;;17.40;3.50;;;;;;;6.07;100.00;101780.81;5096984;28;20638;-69
2023/02/04 02:48:21;;;;;;;17.13;4.10;;;;;;;6.06;100.00;101778.22;5082163;28;20509;-68
2023/02/04 02:50:48;;;;;;;21.60;4.73;;;;;;;6.14;100.00;101781.38;5080844;28;20513;-68
2023/02/04 02:53:18;;;;;;;26.20;6.70;;;;;;;6.12;100.00;101791.22;5081382;28;20487;-66
2023/02/04 02:55:44;;;;;;;14.67;4.07;;;;;;;6.15;100.00;101793.75;5080555;28;20473;-66
2023/02/04 02:58:16;;;;;;;22.60;5.17;;;;;;;6.15;100.00;101786.63;5081985;28;20458;-66
2023/02/04 03:00:42;;;;;;;11.53;4.00;;;;;;;6.24;100.00;101797.75;5081234;28;20508;-66
2023/02/04 03:03:12;;;;;;;14.97;4.13;;;;;;;6.27;100.00;101795.81;5081643;28;20437;-67
2023/02/04 03:05:41;;;;;;;21.77;4.27;;;;;;;6.04;100.00;101796.88;5081447;28;20467;-67
2023/02/04 03:08:08;;;;;;;25.57;4.23;;;;;;;5.93;100.00;101781.44;5081949;28;20495;-67
2023/02/04 03:10:35;;;;;;;25.50;4.20;;;;;;;5.99;100.00;101785.66;5098940;28;20559;-67
2023/02/04 03:13:03;;;;;;;14.23;4.70;;;;;;;5.95;100.00;101795.50;5101283;28;20839;-67
2023/02/04 03:15:31;;;;;;;18.47;4.90;;;;;;;5.95;100.00;101799.97;5100996;28;20508;-67
2023/02/04 03:17:59;;;;;;;20.10;4.03;;;;;;;5.82;100.00;101789.91;5102122;28;20429;-67
2023/02/04 03:20:28;;;;;;;19.83;4.00;;;;;;;5.81;100.00;101809.41;5099345;28;20433;-67
2023/02/04 03:22:55;;;;;;;25.33;4.97;;;;;;;5.78;100.00;101814.00;5094909;28;20446;-67
2023/02/04 03:25:23;;;;;;;24.63;4.07;;;;;;;5.67;100.00;101803.91;5079952;28;20460;-67
2023/02/04 03:27:50;;;;;;;12.43;3.37;;;;;;;5.55;100.00;101813.28;5080980;28;20502;-67
2023/02/04 03:30:16;;;;;;;17.53;3.97;;;;;;;5.43;100.00;101816.47;5085962;28;20440;-66
2023/02/04 03:32:44;;;;;;;19.93;5.13;;;;;;;5.35;100.00;101816.00;5082027;28;20543;-67
2023/02/04 03:35:11;;;;;;;20.23;4.93;;;;;;;5.46;100.00;101822.50;5098703;28;20487;-67
2023/02/04 03:37:38;;;;;;;23.97;4.03;;;;;;;5.39;100.00;101825.53;5101356;28;20443;-67
2023/02/04 03:40:05;;;;;;;18.10;4.03;;;;;;;5.35;100.00;101835.41;5082395;28;20460;-67
2023/02/04 03:42:32;;;;;;;20.63;3.97;;;;;;;5.37;100.00;101827.38;5080849;28;20481;-66
2023/02/04 03:44:58;;;;;;;19.87;3.57;;;;;;;5.26;100.00;101841.97;5095543;28;20515;-66
2023/02/04 03:47:25;;;;;;;18.63;4.37;;;;;;;5.33;100.00;101842.56;5096752;28;20526;-66
2023/02/04 03:49:53;;;;;;;22.40;3.90;;;;;;;5.42;100.00;101850.13;5081085;28;20507;-66
2023/02/04 03:52:20;;;;;;;20.67;4.43;;;;;;;5.36;100.00;101844.22;5079895;28;20476;-66
2023/02/04 03:54:47;;;;;;;17.00;3.80;;;;;;;5.36;100.00;101853.03;5080485;28;20448;-67
2023/02/04 03:57:14;;;;;;;9.07;3.30;;;;;;;5.42;100.00;101862.53;5079615;28;20488;-67
2023/02/04 03:59:41;;;;;;;27.73;4.70;;;;;;;5.46;100.00;101864.09;5080805;28;20953;-66
2023/02/04 04:02:08;;;;;;;14.57;3.50;;;;;;;5.34;100.00;101869.94;5080459;28;20536;-67
2023/02/04 04:04:34;;;;;;;19.03;3.80;;;;;;;5.38;100.00;101877.72;5079744;28;20527;-67
2023/02/04 04:07:03;;;;;;;30.50;4.40;;;;;;;5.30;100.00;101879.84;5079640;28;20470;-67
2023/02/04 04:09:29;;;;;;;17.00;4.10;;;;;;;5.33;100.00;101871.75;5080393;28;20513;-67
2023/02/04 04:11:56;;;;;;;13.93;4.10;;;;;;;5.21;100.00;101883.75;5080843;28;20484;-67
2023/02/04 04:14:28;;;;;;;8.63;3.63;;;;;;;5.13;100.00;101891.16;5101294;28;20449;-66
2023/02/04 04:16:55;;;;;;;10.33;2.40;;;;;;;5.15;100.00;101889.28;5085490;28;20480;-66
2023/02/04 04:19:23;;;;;;;16.43;2.33;;;;;;;5.09;100.00;101901.03;5080949;28;20440;-67
2023/02/04 04:21:50;;;;;;;16.33;2.77;;;;;;;5.12;100.00;101901.81;5079751;28;20529;-67
2023/02/04 04:24:18;;;;;;;19.70;2.37;;;;;;;5.00;100.00;101903.19;5089970;28;20488;-66
2023/02/04 04:26:44;;;;;;;5.63;1.83;;;;;;;5.22;100.00;101909.31;5100292;28;20471;-66
2023/02/04 04:29:11;;;;;;;11.00;2.20;;;;;;;5.16;100.00;101917.53;5097187;28;20471;-66
2023/02/04 04:31:38;;;;;;;10.60;2.47;;;;;;;5.14;100.00;101915.88;5093356;28;20479;-66
2023/02/04 04:34:04;;;;;;;12.07;2.50;;;;;;;5.12;100.00;101925.69;5100067;28;20459;-65
2023/02/04 04:36:31;;;;;;;14.90;2.63;;;;;;;4.92;100.00;101913.25;5079967;28;20472;-66
2023/02/04 04:38:58;;;;;;;3.30;2.10;;;;;;;4.93;100.00;101917.63;5095992;28;20491;-66
2023/02/04 04:41:26;;;;;;;3.87;1.20;;;;;;;4.79;100.00;101921.72;5095833;28;20477;-66
2023/02/04 04:43:53;;;;;;;6.67;1.40;;;;;;;4.81;100.00;101919.88;5080467;28;20546;-67
2023/02/04 04:46:19;;;;;;;14.17;2.30;;;;;;;4.65;100.00;101921.38;5095983;28;20502;-67
2023/02/04 04:48:46;;;;;;;6.13;1.60;;;;;;;4.52;100.00;101928.97;5095291;28;20460;-67
2023/02/04 04:51:13;;;;;;;11.73;2.80;;;;;;;4.56;100.00;101930.56;5079637;28;20478;-67
2023/02/04 04:53:39;;;;;;;8.27;3.00;;;;;;;4.48;100.00;101937.97;5080131;28;20562;-67
2023/02/04 04:56:06;;;;;;;6.43;1.77;;;;;;;4.39;100.00;101954.19;5079478;28;20505;-68
2023/02/04 04:58:34;;;;;;;12.43;2.10;;;;;;;4.64;100.00;101959.41;5081791;28;20841;-67
2023/02/04 05:01:01;;;;;;;6.80;2.23;;;;;;;4.70;100.00;101962.69;5083613;28;20499;-67
2023/02/04 05:03:27;;;;;;;7.60;1.70;;;;;;;4.61;100.00;101960.38;5084243;28;20468;-67
2023/02/04 05:05:54;;;;;;;4.77;1.70;;;;;;;4.44;100.00;101957.53;5066251;28;20496;-67
2023/02/04 05:08:21;;;;;;;2.90;1.10;;;;;;;4.34;100.00;101962.34;5101367;28;20506;-67
2023/02/04 05:10:50;;;;;;;10.17;1.73;;;;;;;4.17;100.00;101962.06;5091786;28;20467;-66
2023/02/04 05:13:16;;;;;;;10.13;3.17;;;;;;;4.14;100.00;101968.38;5085037;28;20480;-65
2023/02/04 05:15:44;;;;;;;8.13;2.50;;;;;;;4.07;100.00;101958.94;5097661;28;20511;-65
2023/02/04 05:18:11;;;;;;;6.70;2.70;;;;;;;4.09;100.00;101973.81;5072962;28;20515;-65
2023/02/04 05:20:38;;;;;;;9.57;1.70;;;;;;;4.05;100.00;101966.06;5089704;28;20471;-65
2023/02/04 05:23:04;;;;;;;6.53;2.57;;;;;;;4.01;100.00;101975.03;5091877;28;20520;-65
2023/02/04 05:25:31;;;;;;;9.10;1.70;;;;;;;4.00;100.00;101976.81;5098272;28;20463;-65
2023/02/04 05:27:58;;;;;;;9.90;1.73;;;;;;;4.08;100.00;101979.16;5102992;28;20938;-66
2023/02/04 05:30:24;;;;;;;4.50;1.97;;;;;;;4.16;100.00;101979.75;5103655;28;20432;-66
2023/02/04 05:32:52;;;;;;;10.00;2.73;;;;;;;4.31;100.00;101980.97;5083294;28;20441;-65
2023/02/04 05:35:19;;;;;;;7.50;2.57;;;;;;;4.14;100.00;101984.25;5083189;28;20867;-66
2023/02/04 05:37:46;;;;;;;8.03;1.80;;;;;;;4.15;100.00;101993.94;5085819;28;20476;-65
2023/02/04 05:40:13;;;;;;;7.03;2.03;;;;;;;3.99;100.00;101998.88;5102628;28;20454;-65
2023/02/04 05:42:40;;;;;;;4.50;1.57;;;;;;;3.96;100.00;102018.41;5103718;28;20490;-65
2023/02/04 05:45:07;;;;;;;6.77;1.90;;;;;;;3.93;100.00;102015.84;5102561;28;20462;-66
2023/02/04 05:47:34;;;;;;;9.83;1.50;;;;;;;4.07;100.00;102014.50;5083288;28;20449;-65
2023/02/04 05:50:02;;;;;;;4.50;1.70;;;;;;;4.07;100.00;102017.16;5094802;28;20506;-65
2023/02/04 05:52:29;;;;;;;5.40;1.63;;;;;;;4.09;100.00;102024.09;5102620;28;20547;-66
2023/02/04 05:54:56;;;;;;;7.33;1.83;;;;;;;3.96;100.00;102030.78;5102433;28;20929;-66
2023/02/04 05:57:22;;;;;;;10.03;1.80;;;;;;;3.82;100.00;102028.63;5101427;28;20502;-67
2023/02/04 05:59:49;;;;;;;6.23;1.40;;;;;;;3.83;100.00;102035.63;5096145;28;20465;-67
2023/02/04 06:02:15;;;;;;;9.03;1.87;;;;;;;3.83;100.00;102040.91;5082746;28;20500;-67
2023/02/04 06:04:42;;;;;;;4.00;1.70;;;;;;;3.85;100.00;102043.50;5099229;28;20461;-67
2023/02/04 06:07:10;;;;;;;9.33;2.10;;;;;;;3.75;100.00;102049.13;5102223;28;20475;-66
2023/02/04 06:09:36;;;;;;;6.43;1.67;;;;;;;3.72;100.00;102054.50;5102047;28;20511;-66
2023/02/04 06:12:04;;;;;;;6.33;1.70;;;;;;;3.72;100.00;102057.16;5089027;28;20519;-66
2023/02/04 06:14:30;;;;;;;8.53;2.07;;;;;;;3.71;100.00;102049.25;5082582;28;20800;-66
2023/02/04 06:16:58;;;;;;;5.17;2.70;;;;;;;3.70;100.00;102050.19;5082402;28;20492;-67
2023/02/04 06:19:25;;;;;;;5.07;2.23;;;;;;;3.65;100.00;102053.00;5083077;28;20506;-68
2023/02/04 06:21:51;;;;;;;4.70;2.20;;;;;;;3.64;100.00;102063.63;5090256;28;20496;-67
2023/02/04 06:24:19;;;;;;;5.63;2.63;;;;;;;3.58;100.00;102065.56;5096298;28;20487;-67
2023/02/04 06:26:46;;;;;;;8.20;2.70;;;;;;;3.61;100.00;102066.34;5082306;28;20520;-66
2023/02/04 06:29:16;;;;;;;6.70;2.60;;;;;;;3.71;100.00;102065.13;5082520;28;20476;-67
2023/02/04 06:31:43;;;;;;;5.80;2.03;;;;;;;3.80;100.00;102072.75;5087398;28;20538;-67
2023/02/04 06:34:10;;;;;;;6.80;2.33;;;;;;;3.73;100.00;102065.94;5102727;28;20551;-67
2023/02/04 06:36:36;;;;;;;7.87;2.20;;;;;;;3.54;100.00;102076.28;5091453;28;20472;-67
2023/02/04 06:39:03;;;;;;;7.00;1.90;;;;;;;3.54;100.00;102078.91;5082386;28;20445;-67
2023/02/04 06:41:31;;;;;;;7.33;1.83;;;;;;;3.49;100.00;102079.09;5084505;28;20468;-67
2023/02/04 06:43:58;;;;;;;14.53;2.60;;;;;;;3.35;100.00;102084.81;5102816;28;20530;-67
2023/02/04 06:46:25;;;;;;;12.40;4.70;;;;;;;3.29;100.00;102085.00;5090652;28;20480;-71
2023/02/04 06:48:51;;;;;;;12.87;3.23;;;;;;;3.18;100.00;102093.28;5082378;28;21078;-70
2023/02/04 06:51:18;;;;;;;7.57;2.37;;;;;;;3.23;100.00;102095.78;5081058;28;20491;-70
2023/02/04 06:53:45;;;;;;;6.63;2.63;;;;;;;3.19;100.00;102096.78;5081534;28;20472;-67
2023/02/04 06:56:11;;;;;;;7.73;1.93;;;;;;;3.17;100.00;102110.03;5081098;28;20472;-66
2023/02/04 06:58:39;;;;;;;6.37;2.50;;;;;;;3.22;100.00;102106.41;5082905;28;20481;-67
2023/02/04 07:01:06;;;;;;;10.47;2.30;;;;;;;3.14;100.00;102106.63;5085423;28;20503;-67
2023/02/04 07:03:33;;;;;;;8.60;2.73;;;;;;;3.21;100.00;102113.44;5081449;28;20443;-67
2023/02/04 07:05:59;;;;;;;3.47;1.93;;;;;;;3.22;100.00;102124.91;5080472;28;20556;-66
2023/02/04 07:08:26;;;;;;;7.70;2.43;;;;;;;3.22;100.00;102130.19;5081554;28;20464;-67
2023/02/04 07:10:53;;;;;;;7.67;3.40;;;;;;;3.22;100.00;102128.41;5076066;28;20526;-67
2023/02/04 07:13:19;;;;;;;14.50;2.77;;;;;;;3.18;100.00;102132.06;5079616;28;20464;-67
2023/02/04 07:15:47;;;;;;;12.23;3.40;;;;;;;3.14;100.00;102139.22;5081524;28;20476;-66
2023/02/04 07:18:14;;;;;;;5.93;3.13;;;;;;;3.08;100.00;102143.81;5080833;28;20889;-66
2023/02/04 07:20:40;;;;;;;7.53;3.23;;;;;;;3.06;100.00;102130.66;5071819;28;20488;-66
2023/02/04 07:23:07;;;;;;;7.17;3.10;;;;;;;3.08;100.00;102122.69;5064375;28;20473;-66
2023/02/04 07:25:34;;;;;;;9.73;3.40;;;;;;;3.15;100.00;102137.44;5076115;28;20501;-67
2023/02/04 07:28:02;;;;;;;8.60;3.40;;;;;;;3.19;100.00;102134.66;5066341;28;20900;-66
2023/02/04 07:30:31;;;;;;;10.70;3.17;;;;;;;3.21;100.00;102137.22;5072139;28;20476;-66
2023/02/04 07:32:59;;;;;;;5.77;3.50;;;;;;;3.18;100.00;102147.91;5072006;28;20512;-66
2023/02/04 07:35:26;;;;;;;5.07;2.90;;;;;;;3.20;100.00;102154.03;5070532;28;20456;-66
2023/02/04 07:37:52;;;;;;;14.53;4.23;;;;;;;3.18;100.00;102150.56;5078702;28;20499;-66
2023/02/04 07:40:20;;;;;;;8.03;3.63;;;;;;;3.13;100.00;102149.84;5071710;28;20887;-66
2023/02/04 07:42:47;;;;;;;6.70;3.40;;;;;;;3.14;100.00;102159.47;5078221;28;20492;-66
2023/02/04 07:45:13;;;;;;;4.03;2.93;;;;;;;3.19;100.00;102169.03;5079401;28;20981;-67
2023/02/04 07:47:40;;;;;;;6.20;2.20;;;;;;;3.27;100.00;102168.78;5080142;28;20456;-66
2023/02/04 07:50:09;;;;;;;7.90;3.37;;;;;;;3.42;100.00;102167.47;5073055;28;20473;-66
2023/02/04 07:52:35;;;;;;;16.83;3.93;;;;;;;3.48;100.00;102175.19;5075350;28;20483;-66
2023/02/04 07:55:02;;;;;;;5.47;3.23;;;;;;;3.58;100.00;102181.06;5078165;28;20483;-66
2023/02/04 07:57:29;;;;;;;9.30;3.17;;;;;;;3.79;100.00;102178.66;5073468;28;20495;-67
2023/02/04 07:59:55;;;;;;;10.20;2.83;;;;;;;4.29;100.00;102186.69;5078339;28;20486;-67
2023/02/04 08:02:22;;;;;;;7.00;4.13;;;;;;;5.73;100.00;102191.09;5077552;28;20511;-66
2023/02/04 08:04:49;;;;;;;7.90;2.90;;;;;;;7.43;100.00;102181.97;5075994;28;20742;-67
2023/02/04 08:07:17;;;;;;;8.57;4.00;;;;;;;8.35;100.00;102187.22;5078628;28;20510;-67
2023/02/04 08:09:43;;;;;;;8.03;3.60;;;;;;;7.03;100.00;102189.13;5079121;28;20981;-65
2023/02/04 08:12:10;;;;;;;5.00;2.67;;;;;;;7.18;100.00;102190.22;5077802;28;20588;-65
2023/02/04 08:14:37;;;;;;;9.50;3.67;;;;;;;7.39;100.00;102198.13;5079420;28;20446;-66
2023/02/04 08:17:03;;;;;;;10.20;2.60;;;;;;;6.71;100.00;102187.91;5078977;28;20503;-66
2023/02/04 08:19:30;;;;;;;7.83;4.00;;;;;;;6.62;100.00;102188.31;5064644;28;20500;-66
2023/02/04 08:21:56;;;;;;;7.47;3.53;;;;;;;7.52;100.00;102184.16;5076779;28;20933;-66
2023/02/04 08:24:24;;;;;;;5.33;3.00;;;;;;;6.82;100.00;102184.75;5079178;28;20476;-66
2023/02/04 08:26:52;;;;;;;7.93;3.40;;;;;;;6.37;100.00;102190.25;5068926;28;20481;-66
2023/02/04 08:29:18;;;;;;;8.00;2.80;;;;;;;6.69;100.00;102198.59;5072993;28;20484;-66
2023/02/04 08:31:46;;;;;;;8.33;3.00;;;;;;;6.45;100.00;102205.00;5077832;28;20483;-65
2023/02/04 08:34:13;;;;;;;7.03;2.67;;;;;;;6.86;100.00;102210.31;5079336;28;20473;-65
2023/02/04 08:36:39;;;;;;;4.37;2.10;;;;;;;6.46;100.00;102215.56;5074546;28;21047;-65
2023/02/04 08:39:06;;;;;;;7.53;2.40;;;;;;;8.00;100.00;102215.59;5072513;28;20559;-66
2023/02/04 08:41:34;;;;;;;5.20;2.80;;;;;;;7.92;99.76;102222.19;5080157;28;20470;-67
2023/02/04 08:44:01;;;;;;;6.80;2.63;;;;;;;7.77;98.24;102220.25;5077107;28;20947;-66
2023/02/04 08:46:27;;;;;;;5.63;2.67;;;;;;;7.47;100.00;102230.56;5081048;28;20479;-66
2023/02/04 08:48:54;;;;;;;5.13;3.10;;;;;;;8.32;94.82;102239.81;5076343;28;20486;-66
2023/02/04 08:51:21;;;;;;;6.53;3.93;;;;;;;9.26;89.91;102233.13;5066007;28;20536;-66
2023/02/04 08:53:47;;;;;;;6.27;3.30;;;;;;;8.99;92.70;102235.47;5079932;28;20480;-66
2023/02/04 08:56:15;;;;;;;5.20;2.83;;;;;;;8.26;90.74;102244.50;5084876;28;20483;-66
2023/02/04 08:58:43;;;;;;;3.93;2.20;;;;;;;7.84;97.17;102250.97;5070695;28;20475;-66
2023/02/04 09:01:11;;;;;;;5.10;3.50;;;;;;;8.26;97.79;102256.94;5078706;28;20545;-66
2023/02/04 09:03:38;;;;;;;4.63;2.83;;;;;;;7.75;94.58;102245.25;5081769;28;20489;-66
2023/02/04 09:06:05;;;;;;;5.63;2.33;;;;;;;8.17;93.54;102255.59;5081535;28;20470;-66
2023/02/04 09:08:31;;;;;;;6.90;3.63;;;;;;;8.62;91.06;102256.94;5083498;28;20468;-66
2023/02/04 09:10:58;;;;;;;3.70;2.77;;;;;;;8.04;93.00;102249.16;5081672;28;20501;-66
2023/02/04 09:13:25;;;;;;;3.27;2.10;;;;;;;8.07;90.53;102238.34;5082618;28;20469;-66
2023/02/04 09:15:53;;;;;;;3.13;2.43;;;;;;;6.69;100.00;102245.59;5081852;28;20782;-65
2023/02/04 09:18:21;;;;;;;6.07;3.03;;;;;;;6.51;100.00;102253.44;5080629;28;20470;-66
2023/02/04 09:20:47;;;;;;;3.87;2.23;;;;;;;6.63;100.00;102256.47;5080790;28;20761;-65
2023/02/04 09:23:14;;;;;;;3.40;2.30;;;;;;;7.00;99.01;102257.56;5081253;28;20453;-66
2023/02/04 09:25:43;;;;;;;3.17;1.77;;;;;;;6.76;96.44;102247.06;5073947;28;20511;-66
2023/02/04 09:28:11;;;;;;;5.63;2.00;;;;;;;6.86;95.84;102258.16;5080346;28;20489;-66
2023/02/04 09:30:38;;;;;;;2.60;1.50;;;;;;;6.51;95.37;102269.38;5078164;28;20503;-66
2023/02/04 09:33:06;;;;;;;1.93;1.73;;;;;;;6.36;94.91;102262.91;5083130;28;20447;-66
2023/02/04 09:35:33;;;;;;;4.47;2.07;;;;;;;6.67;93.37;102268.72;5081333;28;20480;-65
2023/02/04 09:38:00;;;;;;;5.83;5.13;;;;;;;6.93;91.00;102270.25;5082297;28;20464;-66
2023/02/04 09:40:30;;;;;;;4.17;1.90;;;;;;;6.28;94.86;102275.63;5080737;28;20482;-66
2023/02/04 09:42:58;;;;;;;23.33;13.60;;;;;;;7.26;95.55;102285.66;5080273;28;20503;-64
2023/02/04 09:45:26;;;;;;;3.70;1.90;;;;;;;6.86;93.31;102274.13;5077128;28;20436;-65
2023/02/04 09:47:53;;;;;;;12.90;9.47;;;;;;;7.64;87.02;102286.53;5080884;28;20456;-68
2023/02/04 09:50:23;;;;;;;9.43;5.37;;;;;;;8.15;82.32;102299.25;5081358;28;20473;-64
2023/02/04 09:52:55;;;;;;;3.87;1.70;;;;;;;8.66;78.72;102293.19;5082920;28;20487;-64
2023/02/04 09:55:25;;;;;;;1.53;1.43;;;;;;;9.44;76.60;102298.00;5083733;28;20479;-65
2023/02/04 09:57:52;;;;;;;2.20;1.97;;;;;;;9.63;71.32;102289.84;5100616;28;20486;-65
2023/02/04 10:00:21;;;;;;;7.20;5.30;;;;;;;8.98;75.54;102289.78;5083889;28;20446;-64
2023/02/04 10:02:48;;;;;;;4.67;2.33;;;;;;;10.18;69.90;102302.78;5082495;28;20447;-65
2023/02/04 10:05:17;;;;;;;15.20;9.90;;;;;;;9.22;70.23;102301.00;5081049;28;20435;-65
2023/02/04 10:07:45;;;;;;;3.53;1.97;;;;;;;7.52;81.01;102301.28;5082294;28;20455;-64
2023/02/04 10:10:17;;;;;;;3.20;2.40;;;;;;;7.89;82.44;102294.22;5081471;28;20563;-64
2023/02/04 10:12:44;;;;;;;3.37;2.10;;;;;;;9.15;75.77;102295.09;5065498;28;20532;-65
2023/02/04 10:15:14;;;;;;;6.20;4.80;;;;;;;9.98;69.42;102297.72;5081395;28;20849;-65
2023/02/04 10:17:40;;;;;;;3.50;2.67;;;;;;;9.86;67.54;102307.31;5081637;28;21222;-65
2023/02/04 10:20:12;;;;;;;3.50;2.27;;;;;;;9.37;70.94;102321.53;5087012;28;20454;-65
2023/02/04 10:22:39;;;;;;;3.30;2.67;;;;;;;8.96;72.78;102323.69;5083988;28;20480;-65
2023/02/04 10:25:12;;;;;;;3.50;1.90;;;;;;;8.32;74.84;102322.44;5088613;28;20488;-64
2023/02/04 10:27:47;;;;;;;2.20;1.80;;;;;;;7.54;78.68;102319.84;5100597;28;20886;-65
2023/02/04 10:30:19;;;;;;;2.63;2.17;;;;;;;7.39;79.37;102326.72;5096642;28;20470;-64
2023/02/04 10:32:46;;;;;;;4.30;1.97;;;;;;;9.56;70.27;102326.72;5082946;28;20444;-64
2023/02/04 10:35:13;;;;;;;3.73;2.33;;;;;;;8.85;75.07;102318.88;5082195;28;20432;-64
2023/02/04 10:37:40;;;;;;;3.33;1.83;;;;;;;8.77;76.85;102318.44;5081941;28;20460;-65
2023/02/04 10:40:26;;;;;;;2.73;1.83;;;;;;;8.12;73.41;102310.91;5081541;28;20476;-65
2023/02/04 10:42:54;;;;;;;3.50;2.20;;;;;;;8.14;78.02;102308.19;5081822;28;20489;-64
2023/02/04 10:45:22;;;;;;;6.07;3.70;;;;;;;8.08;78.01;102317.34;5101347;28;20446;-64
2023/02/04 10:47:51;;;;;;;1.60;1.50;;;;;;;8.41;73.80;102324.63;5085176;28;20462;-65
2023/02/04 10:50:19;;;;;;;1.87;1.70;;;;;;;7.85;76.98;102323.75;5082063;28;20471;-64
2023/02/04 10:52:49;;;;;;;5.03;1.63;;;;;;;9.66;71.97;102321.75;5083528;28;20852;-65
2023/02/04 10:55:17;;;;;;;2.67;2.20;;;;;;;9.95;67.43;102327.31;5088171;28;20490;-65
2023/02/04 10:57:45;;;;;;;2.80;1.70;;;;;;;9.10;70.35;102321.16;5074275;28;20512;-65
2023/02/04 11:00:20;;;;;;;4.83;3.00;;;;;;;8.36;74.19;102334.66;5081609;28;20461;-65
2023/02/04 11:02:49;;;;;;;3.17;1.63;;;;;;;7.95;75.97;102332.16;5100869;28;20461;-64
2023/02/04 11:05:18;;;;;;;4.90;2.53;;;;;;;9.41;70.33;102331.09;5074886;28;20550;-65
2023/02/04 11:07:45;;;;;;;2.57;1.50;;;;;;;8.40;70.98;102322.88;5082321;28;20478;-65
2023/02/04 11:10:14;;;;;;;2.17;1.70;;;;;;;8.02;74.99;102322.94;5079572;28;20527;-64
2023/02/04 11:12:42;;;;;;;2.30;1.80;;;;;;;9.13;71.08;102318.34;5074913;28;20854;-65
2023/02/04 11:15:38;;;;;;;2.00;1.37;;;;;;;8.81;69.31;102322.66;5080659;28;20479;-65
2023/02/04 11:18:06;;;;;;;2.83;1.87;;;;;;;8.48;71.15;102320.75;5084398;28;20458;-65
2023/02/04 11:20:35;;;;;;;2.60;1.40;;;;;;;6.53;79.65;102318.00;5091981;28;20475;-66
2023/02/04 11:23:30;;;;;;;2.40;1.60;;;;;;;7.59;80.09;102317.00;5094960;28;20857;-65
2023/02/04 11:26:12;;;;;;;3.33;2.10;;;;;;;7.61;75.16;102315.97;5090198;28;20463;-65